Time;durP1;ratioP1;P1;durP2;ratioP2;P2;SDS_P1;SDS_P2;PMS_P1;PMS_P2;Temp;Humidity;BMP_temperature;BMP_pressure;BME280_temperature;BME280_humidity;BME280_pressure;Samples;Min_cycle;Max_cycle;Signal;HPM_P1;HPM_P2
2021/05/09 03:43:40;;;;;;;;;;;20.00;53.80;;;;;;5932911;23;19934;31
2021/05/09 04:04:12;;;;;;;;;;;20.30;53.70;;;;;;5059747;23;19928;-87
2021/05/09 04:06:38;;;;;;;;;;;20.30;53.50;;;;;;4837407;29;19932;-87
2021/05/09 04:09:05;;;;;;;;;;;20.30;53.40;;;;;;4836786;29;19993;-87
2021/05/09 04:11:32;;;;;;;;;;;20.30;53.30;;;;;;4842213;29;19929;-88
2021/05/09 04:14:00;;;;;;;;;;;20.40;53.20;;;;;;4824915;29;20028;-89
2021/05/09 04:16:26;;;;;;;;;;;20.40;53.10;;;;;;4830354;29;20696;-86
2021/05/09 04:18:52;;;;;;;;;;;20.40;53.00;;;;;;4836093;29;19929;-85
2021/05/09 04:21:18;;;;;;;;;;;20.50;52.90;;;;;;4811618;29;19929;-83
2021/05/09 04:24:03;;;;;;;;;;;20.50;53.00;;;;;;4826425;29;19933;-87
2021/05/09 04:27:01;;;;;;;;;;;20.50;53.10;;;;;;4827700;29;20271;-88
2021/05/09 04:29:27;;;;;;;;;;;20.50;52.90;;;;;;4834978;29;22261;-90
2021/05/09 04:31:55;;;;;;;;;;;20.60;52.70;;;;;;4817088;29;19932;-88
2021/05/09 04:34:25;;;;;;;;;;;20.60;52.60;;;;;;4825517;29;19988;-86
2021/05/09 04:36:54;;;;;;;;;;;20.60;52.50;;;;;;4812991;29;19972;-89
2021/05/09 04:39:29;;;;;;;;;;;20.60;52.40;;;;;;4831281;29;19934;-89
2021/05/09 04:41:55;;;;;;;;;;;20.70;52.30;;;;;;4829324;29;20179;-85
2021/05/09 04:44:21;;;;;;;;;;;20.70;52.20;;;;;;4829300;29;19936;-84
2021/05/09 05:04:16;;;;;;;;;;;20.80;51.90;;;;;;5485281;23;19928;-81
2021/05/09 05:06:51;;;;;;;;;;;20.90;52.20;;;;;;4871455;29;19937;-83
2021/05/09 05:09:58;;;;;;;;;;;20.90;52.10;;;;;;4859307;29;20530;-85
2021/05/09 05:13:46;;;;;;;;;;;20.80;52.20;;;;;;4831354;29;19950;-85
2021/05/09 05:17:08;;;;;;;;;;;20.70;52.30;;;;;;4789451;29;19935;-83
2021/05/09 05:20:11;;;;;;;;;;;20.80;52.40;;;;;;4826569;29;20243;-83
2021/05/09 05:23:37;;;;;;;;;;;20.70;52.40;;;;;;4829267;29;20225;-83
2021/05/09 05:26:19;;;;;;;;;;;20.70;52.50;;;;;;4816820;29;19935;-83
2021/05/09 05:29:34;;;;;;;;;;;20.70;52.50;;;;;;4836548;29;19931;-84
2021/05/09 05:32:15;;;;;;;;;;;20.60;52.50;;;;;;4840768;29;19935;-80
2021/05/09 05:34:41;;;;;;;;;;;20.60;52.50;;;;;;4861281;29;20018;-82
2021/05/09 05:37:15;;;;;;;;;;;20.60;52.70;;;;;;4848574;29;19928;-85
2021/05/09 05:39:44;;;;;;;;;;;20.60;52.70;;;;;;4849677;29;19934;-83
2021/05/09 05:42:10;;;;;;;;;;;20.50;52.70;;;;;;4867910;29;19939;-84
2021/05/09 05:44:40;;;;;;;;;;;20.60;52.70;;;;;;4870218;29;19928;-85
2021/05/09 05:47:09;;;;;;;;;;;20.50;52.60;;;;;;4875788;29;19935;-83
2021/05/09 05:49:35;;;;;;;;;;;20.50;52.70;;;;;;4872432;29;19934;-82
2021/05/09 05:52:02;;;;;;;;;;;20.50;52.80;;;;;;4876181;29;20296;-84
2021/05/09 05:57:14;;;;;;;;;;;20.50;53.10;;;;;;4477741;27;20435;-80
2021/05/09 05:59:43;;;;;;;;;;;20.50;53.70;;;;;;4883006;29;19956;-81
2021/05/09 06:02:13;;;;;;;;;;;20.50;53.60;;;;;;4860362;29;20337;-79
2021/05/09 06:04:41;;;;;;;;;;;20.40;53.30;;;;;;4872071;29;19931;-79
2021/05/09 06:07:12;;;;;;;;;;;20.50;54.90;;;;;;4833806;29;19928;-82
2021/05/09 06:10:04;;;;;;;;;;;20.40;53.80;;;;;;4823267;29;19927;-81
2021/05/09 06:13:28;;;;;;;;;;;20.40;54.20;;;;;;4822576;29;19927;-84
2021/05/09 06:16:09;;;;;;;;;;;20.40;54.50;;;;;;4796020;29;19934;-80
2021/05/09 06:19:37;;;;;;;;;;;20.40;54.00;;;;;;4803725;29;19987;-81
2021/05/09 06:23:38;;;;;;;;;;;20.40;53.80;;;;;;4827521;29;19931;-81
2021/05/09 06:26:26;;;;;;;;;;;20.40;53.70;;;;;;4748210;29;19937;-82
2021/05/09 06:29:46;;;;;;;;;;;20.40;53.70;;;;;;4749524;29;19936;-82
2021/05/09 06:32:55;;;;;;;;;;;20.30;53.60;;;;;;4836513;29;19931;-81
2021/05/09 06:36:17;;;;;;;;;;;20.30;53.50;;;;;;4815163;29;19932;-81
2021/05/09 06:39:51;;;;;;;;;;;20.30;53.50;;;;;;4716386;29;19928;-82
2021/05/09 06:46:40;;;;;;;;;;;20.30;53.50;;;;;;4677615;30;19930;-81
2021/05/09 06:49:29;;;;;;;;;;;20.30;53.50;;;;;;4672442;30;19926;-83
2021/05/09 07:02:27;;;;;;;;;;;20.40;53.60;;;;;;5322708;23;19929;-83
2021/05/09 08:03:15;;;;;;;;;;;21.00;51.90;;;;;;1349687;27;19936;-83
2021/05/09 08:59:41;;;;;;;;;;;21.50;54.60;;;;;;5574644;23;20070;-81
2021/05/09 09:44:57;;;;;;;;;;;21.80;54.30;;;;;;5347035;23;19966;-85
2021/05/09 10:10:55;;;;;;;;;;;;;;;;;;;;;
2021/05/09 13:03:11;;;;;;;;;;;22.50;54.40;;;;;;4814511;29;20450;-82
2021/05/09 13:06:06;;;;;;;;;;;22.40;53.90;;;;;;4799392;29;20082;-82
2021/05/09 13:09:13;;;;;;;;;;;22.40;54.30;;;;;;4739574;29;19943;-81
2021/05/09 13:12:51;;;;;;;;;;;22.40;54.60;;;;;;4710668;29;20035;-81
2021/05/09 13:15:54;;;;;;;;;;;22.40;54.60;;;;;;4690960;29;20772;-82
2021/05/09 13:18:36;;;;;;;;;;;22.50;54.70;;;;;;4762823;29;19968;-81
2021/05/09 13:21:32;;;;;;;;;;;22.50;54.60;;;;;;5038351;27;1384634;-81
2021/05/09 13:23:58;;;;;;;;;;;22.40;54.60;;;;;;5067589;28;21751;-81
2021/05/09 13:26:24;;;;;;;;;;;22.50;54.50;;;;;;5027757;28;19936;-82
2021/05/09 13:28:51;;;;;;;;;;;22.50;54.40;;;;;;5047659;28;19924;-82
2021/05/09 13:31:17;;;;;;;;;;;22.50;54.40;;;;;;5086138;28;20375;-82
2021/05/09 13:33:44;;;;;;;;;;;22.50;54.50;;;;;;5076050;28;20294;-82
2021/05/09 13:36:11;;;;;;;;;;;22.60;55.10;;;;;;5077450;28;19928;-81
2021/05/09 13:38:42;;;;;;;;;;;22.60;54.40;;;;;;5088784;28;19924;-81
2021/05/09 13:41:09;;;;;;;;;;;22.60;54.30;;;;;;5078642;28;20019;-81
2021/05/09 13:43:35;;;;;;;;;;;22.60;54.20;;;;;;5063531;28;19931;-81
2021/05/09 13:46:03;;;;;;;;;;;22.70;54.00;;;;;;5077809;28;20296;-82
2021/05/09 13:48:32;;;;;;;;;;;22.60;53.90;;;;;;5089257;28;20266;-81
2021/05/09 13:50:59;;;;;;;;;;;22.70;53.90;;;;;;5085583;28;20536;-83
2021/05/09 13:53:26;;;;;;;;;;;22.70;53.90;;;;;;5091479;28;19928;-81
2021/05/09 13:56:15;;;;;;;;;;;22.70;53.90;;;;;;5073473;28;19955;-81
2021/05/09 13:58:43;;;;;;;;;;;22.70;53.80;;;;;;5048964;28;20024;-81
2021/05/09 14:01:11;;;;;;;;;;;22.70;53.80;;;;;;5084226;28;20195;-81
2021/05/09 14:03:37;;;;;;;;;;;22.70;53.70;;;;;;5048020;28;20030;-81
2021/05/09 14:06:07;;;;;;;;;;;22.70;53.60;;;;;;5085841;28;19954;-83
2021/05/09 14:08:34;;;;;;;;;;;22.70;53.50;;;;;;5065686;28;19955;-81
2021/05/09 14:11:01;;;;;;;;;;;22.80;53.50;;;;;;5079318;28;19981;-82
2021/05/09 14:13:29;;;;;;;;;;;22.80;54.10;;;;;;5091611;28;19931;-81
2021/05/09 14:15:56;;;;;;;;;;;22.80;53.30;;;;;;5088404;28;20348;-84
2021/05/09 14:18:28;;;;;;;;;;;22.80;53.20;;;;;;5081748;28;20347;-81
2021/05/09 14:20:54;;;;;;;;;;;22.80;53.20;;;;;;5075095;28;19935;-81
2021/05/09 14:23:36;;;;;;;;;;;22.80;53.20;;;;;;5115635;27;20713;-82
2021/05/09 14:26:05;;;;;;;;;;;22.80;53.10;;;;;;5103343;28;20714;-82
2021/05/09 14:28:32;;;;;;;;;;;22.80;53.10;;;;;;5079213;28;20159;-82
2021/05/09 14:31:00;;;;;;;;;;;22.80;53.10;;;;;;5083327;28;20474;-83
2021/05/09 14:33:28;;;;;;;;;;;22.90;53.20;;;;;;5079643;28;19934;-82
2021/05/09 14:35:54;;;;;;;;;;;22.80;53.20;;;;;;5086421;28;19928;-82
2021/05/09 14:38:21;;;;;;;;;;;22.90;53.40;;;;;;5069840;28;19938;-82
2021/05/09 14:40:53;;;;;;;;;;;22.90;53.50;;;;;;5068927;28;19927;-82
2021/05/09 15:13:09;;;;;;;;;;;23.40;53.60;;;;;;4767279;24;19957;-86
2021/05/09 15:15:52;;;;;;;;;;;23.60;53.80;;;;;;4709842;30;19979;-84
2021/05/09 15:18:19;;;;;;;;;;;23.60;53.20;;;;;;4705951;30;20281;-83
2021/05/09 15:20:45;;;;;;;;;;;23.60;52.90;;;;;;4701709;30;19937;-83
2021/05/09 15:23:11;;;;;;;;;;;23.60;52.80;;;;;;4742278;30;19965;-85
2021/05/09 15:25:40;;;;;;;;;;;23.70;52.70;;;;;;4736254;30;19982;-84
2021/05/09 15:28:07;;;;;;;;;;;23.70;52.80;;;;;;4743146;30;19938;-84
2021/05/09 15:30:33;;;;;;;;;;;23.70;52.70;;;;;;4737574;30;19938;-81
2021/05/09 15:33:05;;;;;;;;;;;23.70;52.50;;;;;;4731182;24;19973;-89
2021/05/09 15:35:31;;;;;;;;;;;23.70;53.20;;;;;;4717247;30;19938;-89
2021/05/09 15:38:00;;;;;;;;;;;23.70;52.40;;;;;;4735832;30;19935;-87
2021/05/09 15:40:26;;;;;;;;;;;23.70;52.20;;;;;;4742039;30;19938;-85
2021/05/09 15:42:52;;;;;;;;;;;23.70;52.10;;;;;;4738306;30;19957;-88
2021/05/09 15:45:18;;;;;;;;;;;23.70;52.20;;;;;;4746824;30;19938;-88
2021/05/09 15:47:45;;;;;;;;;;;23.70;52.20;;;;;;4726469;30;19934;-93
2021/05/09 15:50:11;;;;;;;;;;;23.80;52.40;;;;;;4719269;30;19938;-83
2021/05/09 15:52:37;;;;;;;;;;;23.80;52.30;;;;;;4725453;30;20379;-86
2021/05/09 15:55:04;;;;;;;;;;;23.70;52.10;;;;;;4747605;30;19942;-84
2021/05/09 15:57:36;;;;;;;;;;;23.80;51.60;;;;;;4745473;30;20123;-85
2021/05/09 16:00:09;;;;;;;;;;;23.80;51.50;;;;;;4744548;30;19983;-84
2021/05/09 16:02:35;;;;;;;;;;;23.80;51.50;;;;;;4746541;30;19930;-87
2021/05/09 16:05:05;;;;;;;;;;;23.80;51.30;;;;;;4744895;30;19937;-89
2021/05/09 16:07:31;;;;;;;;;;;23.80;51.10;;;;;;4760227;30;20277;-86
2021/05/09 16:09:57;;;;;;;;;;;23.80;51.50;;;;;;4762250;30;19956;-86
2021/05/09 16:12:23;;;;;;;;;;;23.90;51.20;;;;;;4762670;30;19938;-86
2021/05/09 16:14:52;;;;;;;;;;;23.90;50.80;;;;;;4763085;30;19941;-85
2021/05/09 16:17:18;;;;;;;;;;;23.90;50.90;;;;;;4760752;30;19965;-87
2021/05/09 16:19:47;;;;;;;;;;;23.90;50.50;;;;;;4765255;30;19984;-87
2021/05/09 16:22:14;;;;;;;;;;;23.90;50.40;;;;;;4756141;30;20419;-83
2021/05/09 16:24:40;;;;;;;;;;;23.90;50.60;;;;;;4743116;30;20486;-83
2021/05/09 16:27:06;;;;;;;;;;;23.90;50.60;;;;;;4756710;30;19953;-86
2021/05/09 16:29:32;;;;;;;;;;;23.90;50.50;;;;;;4760777;30;20387;-85
2021/05/09 16:31:58;;;;;;;;;;;23.90;50.80;;;;;;4758906;30;20490;-83
2021/05/09 16:34:24;;;;;;;;;;;23.90;51.30;;;;;;4737127;30;20376;-83
2021/05/09 16:36:51;;;;;;;;;;;23.90;50.40;;;;;;4740270;30;19961;-89
2021/05/09 16:39:17;;;;;;;;;;;23.90;50.90;;;;;;4738536;30;19938;-92
2021/05/09 16:41:43;;;;;;;;;;;23.90;50.70;;;;;;4740187;30;19938;-93
2021/05/09 17:36:42;;;;;;;;;;;23.90;48.80;;;;;;4707612;30;19931;-87
2021/05/09 17:39:09;;;;;;;;;;;23.90;49.00;;;;;;4706833;30;19946;-93
2021/05/09 17:41:36;;;;;;;;;;;23.90;48.90;;;;;;4705213;30;19926;-85
2021/05/09 17:44:10;;;;;;;;;;;23.90;49.00;;;;;;4717060;30;19984;-88
2021/05/09 17:46:36;;;;;;;;;;;23.90;49.70;;;;;;4734546;30;20303;-88
2021/05/09 17:49:03;;;;;;;;;;;23.90;49.40;;;;;;4729722;30;19919;-87
2021/05/09 17:51:29;;;;;;;;;;;23.90;49.30;;;;;;4714656;30;20394;-88
2021/05/09 17:53:55;;;;;;;;;;;23.90;49.70;;;;;;4717694;30;19956;-90
2021/05/09 17:56:21;;;;;;;;;;;23.90;49.60;;;;;;4711623;30;20247;-88
2021/05/09 17:58:48;;;;;;;;;;;23.90;49.70;;;;;;4704468;30;19950;-88
2021/05/09 18:12:08;;;;;;;;;;;23.90;49.90;;;;;;4712433;30;19941;-89
2021/05/09 18:14:38;;;;;;;;;;;24.00;50.00;;;;;;4726397;30;20391;-89
2021/05/09 18:17:17;;;;;;;;;;;24.00;50.00;;;;;;4719041;30;20031;-90
2021/05/09 18:24:55;;;;;;;;;;;24.10;50.20;;;;;;4749620;30;19944;-88
2021/05/09 18:27:21;;;;;;;;;;;24.10;50.30;;;;;;4719784;30;19939;-86
2021/05/09 18:29:48;;;;;;;;;;;24.10;49.90;;;;;;4739080;30;19994;-93
2021/05/09 18:32:22;;;;;;;;;;;24.10;50.20;;;;;;4712615;30;19945;-91
2021/05/09 18:34:50;;;;;;;;;;;24.10;49.90;;;;;;4708965;30;19942;-95
2021/05/09 18:37:17;;;;;;;;;;;24.10;49.90;;;;;;4715205;30;19934;-94
2021/05/09 18:39:43;;;;;;;;;;;24.10;49.50;;;;;;4721000;30;19919;-92
2021/05/09 18:42:10;;;;;;;;;;;24.20;49.80;;;;;;4743371;30;20432;-94
2021/05/09 18:44:36;;;;;;;;;;;24.10;49.10;;;;;;4727222;30;19934;-91
2021/05/09 18:47:10;;;;;;;;;;;24.10;48.80;;;;;;4729203;30;20679;-92
2021/05/09 18:49:37;;;;;;;;;;;24.10;49.00;;;;;;4745869;30;20025;-81
2021/05/09 18:52:04;;;;;;;;;;;24.10;47.80;;;;;;4742017;30;19999;-83
2021/05/09 18:54:30;;;;;;;;;;;24.10;47.00;;;;;;4736509;30;21179;-83
2021/05/09 19:00:31;;;;;;;;;;;24.00;47.50;;;;;;4750236;24;20310;-82
2021/05/09 19:03:05;;;;;;;;;;;24.00;47.20;;;;;;4709172;30;19989;-83
2021/05/09 19:05:36;;;;;;;;;;;23.90;47.00;;;;;;4716428;30;20003;-82
2021/05/09 19:08:02;;;;;;;;;;;23.90;47.50;;;;;;4724953;30;20541;-82
2021/05/09 19:10:31;;;;;;;;;;;23.90;48.20;;;;;;4727265;30;19961;-83
2021/05/09 19:12:57;;;;;;;;;;;23.90;48.40;;;;;;4715408;30;20353;-82
2021/05/09 19:15:23;;;;;;;;;;;23.90;48.90;;;;;;4731197;30;19950;-83
2021/05/09 19:17:51;;;;;;;;;;;23.90;48.50;;;;;;4720054;30;20259;-82
2021/05/09 19:20:18;;;;;;;;;;;23.90;48.90;;;;;;4712469;30;19948;-83
2021/05/09 19:22:44;;;;;;;;;;;23.90;48.80;;;;;;4715479;30;20049;-82
2021/05/09 19:25:15;;;;;;;;;;;23.90;48.90;;;;;;4724795;30;19994;-82
2021/05/09 19:27:41;;;;;;;;;;;23.90;48.90;;;;;;4715490;30;20310;-82
2021/05/09 19:30:08;;;;;;;;;;;23.90;48.80;;;;;;4715307;30;19938;-82
2021/05/09 19:32:34;;;;;;;;;;;23.90;49.70;;;;;;4720633;30;19941;-82
2021/05/09 19:35:00;;;;;;;;;;;23.90;48.70;;;;;;4725313;30;20221;-82
2021/05/09 19:37:26;;;;;;;;;;;23.80;48.60;;;;;;4727355;30;19939;-82
2021/05/09 19:39:52;;;;;;;;;;;23.80;48.80;;;;;;4703477;30;19941;-83
2021/05/09 19:42:19;;;;;;;;;;;23.80;48.80;;;;;;4719440;30;19939;-82
2021/05/09 19:44:46;;;;;;;;;;;23.80;48.30;;;;;;4722342;30;20271;-82
2021/05/09 19:47:12;;;;;;;;;;;23.80;48.20;;;;;;4722707;30;19930;-82
2021/05/09 19:49:38;;;;;;;;;;;23.70;48.00;;;;;;4721593;30;20022;-82
2021/05/09 19:52:04;;;;;;;;;;;23.70;48.20;;;;;;4711205;30;20326;-83
2021/05/09 19:54:31;;;;;;;;;;;23.70;48.10;;;;;;4708551;30;20503;-82
2021/05/09 19:56:58;;;;;;;;;;;23.70;48.10;;;;;;4712609;30;19935;-82
2021/05/09 19:59:24;;;;;;;;;;;23.60;48.10;;;;;;4725327;30;19939;-82
2021/05/09 20:01:50;;;;;;;;;;;23.60;48.20;;;;;;4724547;30;19957;-92
2021/05/09 20:04:17;;;;;;;;;;;23.60;48.60;;;;;;4704436;30;19946;-91
2021/05/09 20:06:44;;;;;;;;;;;23.60;49.10;;;;;;4705035;30;20238;-93
2021/05/09 20:09:10;;;;;;;;;;;23.70;49.40;;;;;;4730875;30;19934;-89
2021/05/09 20:11:36;;;;;;;;;;;23.70;49.20;;;;;;4718786;30;20204;-90
2021/05/09 20:16:43;;;;;;;;;;;23.80;49.60;;;;;;4809992;24;19930;-88
2021/05/09 20:19:09;;;;;;;;;;;23.80;49.60;;;;;;4689927;30;19987;-87
2021/05/09 20:21:35;;;;;;;;;;;23.70;49.40;;;;;;4727177;30;20381;-86
2021/05/09 20:24:02;;;;;;;;;;;23.80;49.40;;;;;;4730355;30;19938;-88
2021/05/09 20:26:28;;;;;;;;;;;23.80;49.30;;;;;;4717741;30;19934;-87
2021/05/09 20:28:54;;;;;;;;;;;23.80;49.40;;;;;;4735488;30;19938;-88
2021/05/09 20:31:20;;;;;;;;;;;23.90;49.40;;;;;;4728615;30;19965;-87
2021/05/09 20:33:47;;;;;;;;;;;23.80;49.40;;;;;;4739260;30;20061;-90
2021/05/09 20:36:46;;;;;;;;;;;23.80;49.50;;;;;;4733504;30;20359;-93
2021/05/09 20:39:06;;;;;;;;;;;23.80;49.50;;;;;;4736750;30;20438;-89
2021/05/09 20:41:32;;;;;;;;;;;23.80;49.30;;;;;;4744462;30;19930;-89
2021/05/09 20:44:03;;;;;;;;;;;23.80;49.40;;;;;;4732907;30;19938;-89
2021/05/09 20:46:29;;;;;;;;;;;23.80;49.20;;;;;;4739904;30;20029;-93
2021/05/09 20:48:55;;;;;;;;;;;23.80;49.50;;;;;;4717828;30;19934;-93
2021/05/09 20:51:31;;;;;;;;;;;23.90;49.50;;;;;;4715631;30;19948;-91
2021/05/09 20:54:00;;;;;;;;;;;23.80;49.50;;;;;;4733244;30;19930;-83
2021/05/09 20:56:28;;;;;;;;;;;23.90;49.60;;;;;;4739649;30;19942;-85
2021/05/09 20:58:55;;;;;;;;;;;23.90;49.50;;;;;;4736182;30;19948;-86
2021/05/09 21:01:21;;;;;;;;;;;23.90;49.30;;;;;;4745094;30;19938;-88
2021/05/09 21:03:48;;;;;;;;;;;23.90;49.20;;;;;;4729313;30;19931;-86
2021/05/09 21:06:17;;;;;;;;;;;23.90;49.10;;;;;;4730974;30;19937;-84
2021/05/09 21:08:44;;;;;;;;;;;23.90;48.90;;;;;;4741355;30;19930;-87
2021/05/09 21:11:10;;;;;;;;;;;23.90;49.00;;;;;;4727810;30;19942;-87
2021/05/09 21:13:36;;;;;;;;;;;23.90;49.20;;;;;;4725477;30;19931;-89
2021/05/09 21:16:20;;;;;;;;;;;23.90;49.40;;;;;;4725196;30;19931;-87
2021/05/09 21:18:46;;;;;;;;;;;23.90;49.60;;;;;;4746517;30;19934;-85
2021/05/09 21:21:12;;;;;;;;;;;23.90;49.50;;;;;;4714113;30;19938;-84
2021/05/09 21:23:39;;;;;;;;;;;23.90;49.60;;;;;;4738972;30;19938;-85
2021/05/09 21:26:05;;;;;;;;;;;23.90;49.50;;;;;;4735092;30;19938;-90
2021/05/09 21:28:31;;;;;;;;;;;23.90;49.50;;;;;;4738124;30;19941;-86
2021/05/09 21:31:02;;;;;;;;;;;23.90;49.50;;;;;;4746718;30;20353;-89
2021/05/09 21:33:29;;;;;;;;;;;24.00;49.20;;;;;;4742128;30;20418;-86
2021/05/09 21:35:55;;;;;;;;;;;24.00;49.60;;;;;;4738827;30;19938;-87
2021/05/09 21:38:22;;;;;;;;;;;24.00;49.50;;;;;;4721285;30;19938;-93
2021/05/09 21:40:48;;;;;;;;;;;24.00;50.10;;;;;;4725224;30;19937;-91
2021/05/09 21:43:14;;;;;;;;;;;24.00;49.90;;;;;;4721297;30;19981;-84
2021/05/09 21:45:41;;;;;;;;;;;24.00;50.00;;;;;;4730613;30;19931;-80
2021/05/09 21:48:07;;;;;;;;;;;24.10;50.00;;;;;;4729804;30;19957;-79
2021/05/09 21:50:37;;;;;;;;;;;24.10;50.00;;;;;;4754854;30;20008;-89
2021/05/09 21:53:03;;;;;;;;;;;24.20;50.30;;;;;;4712382;30;19936;-82
2021/05/09 21:55:32;;;;;;;;;;;24.20;50.30;;;;;;4739819;30;19931;-89
2021/05/09 21:57:59;;;;;;;;;;;24.20;50.40;;;;;;4723104;30;19958;-89
2021/05/09 22:00:28;;;;;;;;;;;24.20;50.30;;;;;;4730748;30;20295;-88
2021/05/09 22:02:55;;;;;;;;;;;24.30;50.40;;;;;;4734857;30;19968;-90
2021/05/09 22:05:22;;;;;;;;;;;24.20;50.30;;;;;;4732239;30;20670;-87
2021/05/09 22:07:48;;;;;;;;;;;24.30;50.40;;;;;;4715047;30;20263;-87
2021/05/09 22:10:14;;;;;;;;;;;24.30;50.40;;;;;;4731376;30;19921;-87
2021/05/09 22:12:40;;;;;;;;;;;24.30;50.30;;;;;;4720375;30;19946;-87
2021/05/09 22:15:07;;;;;;;;;;;24.20;50.20;;;;;;4749604;30;20330;-87
2021/05/09 22:17:34;;;;;;;;;;;24.20;50.20;;;;;;4748457;30;19938;-86
2021/05/09 22:20:02;;;;;;;;;;;24.10;50.10;;;;;;4732299;30;20400;-87
2021/05/09 22:22:29;;;;;;;;;;;24.10;50.30;;;;;;4739836;30;19930;-88
2021/05/09 22:24:57;;;;;;;;;;;24.10;50.30;;;;;;4750322;30;19945;-89
2021/05/09 22:27:24;;;;;;;;;;;24.10;50.30;;;;;;4723527;30;19931;-89
2021/05/09 22:29:51;;;;;;;;;;;24.10;50.40;;;;;;4721663;30;19945;-88
2021/05/09 22:32:17;;;;;;;;;;;24.00;50.40;;;;;;4719915;30;19938;-88
2021/05/09 22:34:44;;;;;;;;;;;24.00;50.40;;;;;;4719090;30;19938;-89
2021/05/09 22:37:10;;;;;;;;;;;24.00;50.50;;;;;;4724325;30;19938;-85
2021/05/09 22:39:36;;;;;;;;;;;24.00;50.60;;;;;;4737750;30;19969;-86
2021/05/09 22:42:08;;;;;;;;;;;23.90;50.60;;;;;;4745470;30;19937;-86
2021/05/09 22:44:37;;;;;;;;;;;23.90;50.60;;;;;;4750467;30;19934;-86
2021/05/09 22:47:03;;;;;;;;;;;23.90;50.70;;;;;;4750076;30;19930;-86
2021/05/09 22:49:30;;;;;;;;;;;23.90;50.70;;;;;;4749276;30;19930;-85
2021/05/09 22:51:58;;;;;;;;;;;23.80;50.70;;;;;;4747183;30;19992;-85
2021/05/09 22:54:30;;;;;;;;;;;23.80;50.70;;;;;;4745328;30;19941;-86
2021/05/09 22:57:05;;;;;;;;;;;23.80;50.80;;;;;;4739183;30;20762;-88
2021/05/09 22:59:34;;;;;;;;;;;23.80;50.80;;;;;;4739133;30;19935;-88
2021/05/09 23:02:02;;;;;;;;;;;23.80;50.80;;;;;;4747795;30;20330;-84
2021/05/09 23:04:29;;;;;;;;;;;23.80;50.90;;;;;;4746635;30;20081;-83
2021/05/09 23:07:02;;;;;;;;;;;23.80;50.90;;;;;;4745508;30;19930;-83
2021/05/09 23:09:28;;;;;;;;;;;23.70;50.90;;;;;;4742641;30;19938;-83
2021/05/09 23:11:54;;;;;;;;;;;23.70;51.00;;;;;;4743415;30;19930;-84
2021/05/09 23:14:23;;;;;;;;;;;23.70;50.90;;;;;;4733626;30;19930;-85
2021/05/09 23:16:49;;;;;;;;;;;23.70;51.00;;;;;;4742298;30;19937;-85
2021/05/09 23:21:45;;;;;;;;;;;23.70;51.10;;;;;;4739851;30;20374;-83
2021/05/09 23:24:12;;;;;;;;;;;23.70;51.10;;;;;;4740757;30;19953;-85
2021/05/09 23:26:40;;;;;;;;;;;23.60;51.10;;;;;;4747564;30;20414;-85
2021/05/09 23:29:07;;;;;;;;;;;23.60;51.10;;;;;;4743901;30;19945;-84
2021/05/09 23:31:34;;;;;;;;;;;23.60;51.10;;;;;;4750047;30;19937;-84
2021/05/09 23:34:00;;;;;;;;;;;23.60;51.20;;;;;;4740510;30;19931;-85
2021/05/09 23:36:26;;;;;;;;;;;23.60;51.20;;;;;;4735604;30;19934;-84
2021/05/09 23:38:52;;;;;;;;;;;23.50;51.20;;;;;;4717086;30;19943;-85
2021/05/09 23:41:19;;;;;;;;;;;23.50;51.20;;;;;;4732805;30;20190;-85
2021/05/09 23:43:55;;;;;;;;;;;23.50;51.20;;;;;;4725301;30;20295;-85
2021/05/09 23:46:22;;;;;;;;;;;23.60;51.20;;;;;;4739551;30;20722;-85
2021/05/09 23:48:56;;;;;;;;;;;23.50;51.20;;;;;;4744887;30;19962;-85
2021/05/09 23:51:22;;;;;;;;;;;23.50;51.90;;;;;;4747211;30;21348;-84
2021/05/09 23:53:49;;;;;;;;;;;23.50;51.20;;;;;;4747075;30;19930;-85
2021/05/09 23:56:15;;;;;;;;;;;23.50;51.30;;;;;;4737283;30;19930;-88
2021/05/09 23:58:41;;;;;;;;;;;23.50;51.20;;;;;;4725450;30;19930;-87
